KDFI/DFI METAR and TAF weather

Enter ICAO airport designator
Station Type Date Time Source
KDFI METAR 2018/10/16 19:53 UTC NOAA

KDFI 161953Z AUTO 22011G23KT 10SM CLR 12/M02 A3008 RMK AO2 SLP189 T01221022


Station Type Date Time Source
KDFI Decoded METAR 2018/10/16 19:53 UTC NOAA

DEFIANCE MEMORIAL AIRPORT, OH, United States (KDFI) 41-20N 84-26W 219M
Oct 16, 2018 - 03:53 PM EDT / 2018.10.16 1953 UTC
Wind: from the SW (220 degrees) at 13 MPH (11 KT) gusting to 26 MPH (23 KT):0
Visibility: 10 mile(s):0
Sky conditions: clear
Temperature: 54.0 F (12.2 C)
Dew Point: 28.0 F (-2.2 C)
Relative Humidity: 36%
Pressure (altimeter): 30.08 in. Hg (1018 hPa)
ob: KDFI 161953Z AUTO 22011G23KT 10SM CLR 12/M02 A3008 RMK AO2 SLP189 T01221022
cycle: 20

Station Type Date Time Source
KDFI TAF UTC NOAA

Error!


Example: see airport list